sensor_id;sensor_type;location;lat;lon;timestamp;temperature;humidity
4820;DHT22;2424;49.696;6.630;2022-07-21T00:05:01;21.20;99.90
4820;DHT22;2424;49.696;6.630;2022-07-21T00:10:25;21.00;99.90
4820;DHT22;2424;49.696;6.630;2022-07-21T00:15:49;21.10;99.90
4820;DHT22;2424;49.696;6.630;2022-07-21T00:21:11;21.00;99.90
4820;DHT22;2424;49.696;6.630;2022-07-21T00:26:33;20.90;99.90
4820;DHT22;2424;49.696;6.630;2022-07-21T00:31:56;20.70;99.90
4820;DHT22;2424;49.696;6.630;2022-07-21T00:37:20;20.60;99.90
4820;DHT22;2424;49.696;6.630;2022-07-21T00:42:44;20.50;99.90
4820;DHT22;2424;49.696;6.630;2022-07-21T00:48:08;20.50;99.90
4820;DHT22;2424;49.696;6.630;2022-07-21T00:53:30;20.50;99.90
4820;DHT22;2424;49.696;6.630;2022-07-21T00:58:52;20.40;99.90
4820;DHT22;2424;49.696;6.630;2022-07-21T01:04:15;20.30;99.90
4820;DHT22;2424;49.696;6.630;2022-07-21T01:09:37;20.30;99.90
4820;DHT22;2424;49.696;6.630;2022-07-21T01:14:59;20.30;99.90
4820;DHT22;2424;49.696;6.630;2022-07-21T01:20:24;20.20;99.90
4820;DHT22;2424;49.696;6.630;2022-07-21T01:25:50;20.20;99.90
4820;DHT22;2424;49.696;6.630;2022-07-21T01:31:12;20.10;99.90
4820;DHT22;2424;49.696;6.630;2022-07-21T01:36:34;20.10;99.90
4820;DHT22;2424;49.696;6.630;2022-07-21T01:41:58;19.90;99.90
4820;DHT22;2424;49.696;6.630;2022-07-21T01:47:19;19.90;99.90
4820;DHT22;2424;49.696;6.630;2022-07-21T01:52:43;20.00;99.90
4820;DHT22;2424;49.696;6.630;2022-07-21T01:58:06;20.10;99.90
4820;DHT22;2424;49.696;6.630;2022-07-21T02:03:28;20.00;99.90
4820;DHT22;2424;49.696;6.630;2022-07-21T02:08:51;20.00;99.90
4820;DHT22;2424;49.696;6.630;2022-07-21T02:14:14;20.10;99.90
4820;DHT22;2424;49.696;6.630;2022-07-21T02:19:36;20.10;99.90
4820;DHT22;2424;49.696;6.630;2022-07-21T02:24:58;20.20;99.90
4820;DHT22;2424;49.696;6.630;2022-07-21T02:30:21;20.10;99.90
4820;DHT22;2424;49.696;6.630;2022-07-21T02:35:44;20.20;99.90
4820;DHT22;2424;49.696;6.630;2022-07-21T02:41:06;20.20;99.90
4820;DHT22;2424;49.696;6.630;2022-07-21T02:46:30;20.10;99.90
4820;DHT22;2424;49.696;6.630;2022-07-21T02:51:52;20.00;99.90
4820;DHT22;2424;49.696;6.630;2022-07-21T02:57:14;20.00;99.90
4820;DHT22;2424;49.696;6.630;2022-07-21T03:02:37;19.90;99.90
4820;DHT22;2424;49.696;6.630;2022-07-21T03:07:59;19.80;99.90
4820;DHT22;2424;49.696;6.630;2022-07-21T03:13:22;19.80;99.90
4820;DHT22;2424;49.696;6.630;2022-07-21T03:18:46;19.80;99.90
4820;DHT22;2424;49.696;6.630;2022-07-21T03:24:08;19.80;99.90
4820;DHT22;2424;49.696;6.630;2022-07-21T03:29:30;19.80;99.90
4820;DHT22;2424;49.696;6.630;2022-07-21T03:34:53;19.80;99.90
4820;DHT22;2424;49.696;6.630;2022-07-21T03:40:16;19.70;99.90
4820;DHT22;2424;49.696;6.630;2022-07-21T03:45:40;19.80;99.90
4820;DHT22;2424;49.696;6.630;2022-07-21T03:51:03;19.80;99.90
4820;DHT22;2424;49.696;6.630;2022-07-21T03:56:25;19.80;99.90
4820;DHT22;2424;49.696;6.630;2022-07-21T04:01:47;19.90;99.90
4820;DHT22;2424;49.696;6.630;2022-07-21T04:07:10;19.80;99.90
4820;DHT22;2424;49.696;6.630;2022-07-21T04:12:32;19.70;99.90
4820;DHT22;2424;49.696;6.630;2022-07-21T04:17:55;19.70;99.90
4820;DHT22;2424;49.696;6.630;2022-07-21T04:23:18;19.70;99.90
4820;DHT22;2424;49.696;6.630;2022-07-21T04:28:40;19.60;99.90
4820;DHT22;2424;49.696;6.630;2022-07-21T04:34:02;19.70;99.90
4820;DHT22;2424;49.696;6.630;2022-07-21T04:39:25;19.60;99.90
4820;DHT22;2424;49.696;6.630;2022-07-21T04:44:48;19.60;99.90
4820;DHT22;2424;49.696;6.630;2022-07-21T04:50:10;19.50;99.90
4820;DHT22;2424;49.696;6.630;2022-07-21T04:55:34;19.60;99.90
4820;DHT22;2424;49.696;6.630;2022-07-21T05:00:56;19.60;99.90
4820;DHT22;2424;49.696;6.630;2022-07-21T05:06:18;19.60;99.90
4820;DHT22;2424;49.696;6.630;2022-07-21T05:11:41;19.60;99.90
4820;DHT22;2424;49.696;6.630;2022-07-21T05:17:03;19.70;99.90
4820;DHT22;2424;49.696;6.630;2022-07-21T05:22:26;19.60;99.90
4820;DHT22;2424;49.696;6.630;2022-07-21T05:27:49;19.60;99.90
4820;DHT22;2424;49.696;6.630;2022-07-21T05:33:11;19.60;99.90
4820;DHT22;2424;49.696;6.630;2022-07-21T05:38:33;19.50;99.90
4820;DHT22;2424;49.696;6.630;2022-07-21T05:43:57;19.50;99.90
4820;DHT22;2424;49.696;6.630;2022-07-21T05:49:19;19.50;99.90
4820;DHT22;2424;49.696;6.630;2022-07-21T05:54:41;19.50;99.90
4820;DHT22;2424;49.696;6.630;2022-07-21T06:00:06;19.50;99.90
4820;DHT22;2424;49.696;6.630;2022-07-21T06:05:28;19.70;99.90
4820;DHT22;2424;49.696;6.630;2022-07-21T06:10:50;19.70;99.90
4820;DHT22;2424;49.696;6.630;2022-07-21T06:16:14;19.80;99.90
4820;DHT22;2424;49.696;6.630;2022-07-21T06:21:36;19.80;99.90
4820;DHT22;2424;49.696;6.630;2022-07-21T06:26:58;20.00;99.90
4820;DHT22;2424;49.696;6.630;2022-07-21T06:32:21;19.90;99.90
4820;DHT22;2424;49.696;6.630;2022-07-21T06:37:44;19.80;99.90
4820;DHT22;2424;49.696;6.630;2022-07-21T06:43:06;19.80;99.90
4820;DHT22;2424;49.696;6.630;2022-07-21T06:48:29;19.90;99.90
4820;DHT22;2424;49.696;6.630;2022-07-21T06:53:52;20.00;99.90
4820;DHT22;2424;49.696;6.630;2022-07-21T06:59:14;20.00;99.90
4820;DHT22;2424;49.696;6.630;2022-07-21T07:04:37;19.90;99.90
4820;DHT22;2424;49.696;6.630;2022-07-21T07:09:59;19.90;99.90
4820;DHT22;2424;49.696;6.630;2022-07-21T07:15:23;20.00;99.90
4820;DHT22;2424;49.696;6.630;2022-07-21T07:20:47;20.20;99.90
4820;DHT22;2424;49.696;6.630;2022-07-21T07:26:09;20.30;99.90
4820;DHT22;2424;49.696;6.630;2022-07-21T07:31:31;20.40;99.90
4820;DHT22;2424;49.696;6.630;2022-07-21T07:36:55;20.40;99.90
4820;DHT22;2424;49.696;6.630;2022-07-21T07:42:17;20.60;99.90
4820;DHT22;2424;49.696;6.630;2022-07-21T07:47:39;20.70;99.90
4820;DHT22;2424;49.696;6.630;2022-07-21T07:53:03;21.10;99.90
4820;DHT22;2424;49.696;6.630;2022-07-21T07:58:25;21.00;99.90
4820;DHT22;2424;49.696;6.630;2022-07-21T08:03:47;21.20;99.90
4820;DHT22;2424;49.696;6.630;2022-07-21T08:09:11;21.20;99.90
4820;DHT22;2424;49.696;6.630;2022-07-21T08:14:33;21.20;99.90
4820;DHT22;2424;49.696;6.630;2022-07-21T08:19:55;21.30;99.90
4820;DHT22;2424;49.696;6.630;2022-07-21T08:25:18;21.30;99.90
4820;DHT22;2424;49.696;6.630;2022-07-21T08:30:40;21.40;99.90
4820;DHT22;2424;49.696;6.630;2022-07-21T08:36:02;21.50;99.90
4820;DHT22;2424;49.696;6.630;2022-07-21T08:41:26;21.50;99.90
4820;DHT22;2424;49.696;6.630;2022-07-21T08:46:50;21.60;99.90
4820;DHT22;2424;49.696;6.630;2022-07-21T08:52:12;21.60;99.90
4820;DHT22;2424;49.696;6.630;2022-07-21T08:57:37;22.00;99.90
4820;DHT22;2424;49.696;6.630;2022-07-21T09:03:11;22.00;99.90
4820;DHT22;2424;49.696;6.630;2022-07-21T09:08:35;22.00;99.90
4820;DHT22;2424;49.696;6.630;2022-07-21T09:14:09;21.70;99.90
4820;DHT22;2424;49.696;6.630;2022-07-21T09:19:34;21.90;99.90
4820;DHT22;2424;49.696;6.630;2022-07-21T09:24:58;21.90;99.90
4820;DHT22;2424;49.696;6.630;2022-07-21T09:30:22;21.80;99.90
4820;DHT22;2424;49.696;6.630;2022-07-21T09:35:52;21.70;99.90
4820;DHT22;2424;49.696;6.630;2022-07-21T09:41:17;21.60;99.90
4820;DHT22;2424;49.696;6.630;2022-07-21T09:46:41;21.50;99.90
4820;DHT22;2424;49.696;6.630;2022-07-21T09:52:21;21.50;99.90
4820;DHT22;2424;49.696;6.630;2022-07-21T09:57:44;21.40;99.90
4820;DHT22;2424;49.696;6.630;2022-07-21T10:03:08;21.50;99.90
4820;DHT22;2424;49.696;6.630;2022-07-21T10:08:32;21.80;99.90
4820;DHT22;2424;49.696;6.630;2022-07-21T10:13:55;22.10;99.90
4820;DHT22;2424;49.696;6.630;2022-07-21T10:19:23;22.20;99.90
4820;DHT22;2424;49.696;6.630;2022-07-21T10:24:48;22.00;99.90
4820;DHT22;2424;49.696;6.630;2022-07-21T10:30:11;21.90;99.90
4820;DHT22;2424;49.696;6.630;2022-07-21T10:35:40;22.10;99.90
4820;DHT22;2424;49.696;6.630;2022-07-21T10:41:05;22.60;99.90
4820;DHT22;2424;49.696;6.630;2022-07-21T10:46:37;22.40;99.90
4820;DHT22;2424;49.696;6.630;2022-07-21T10:52:02;22.80;99.90
4820;DHT22;2424;49.696;6.630;2022-07-21T10:57:25;23.30;99.90
4820;DHT22;2424;49.696;6.630;2022-07-21T11:02:51;22.90;99.90
4820;DHT22;2424;49.696;6.630;2022-07-21T11:08:17;23.00;99.90
4820;DHT22;2424;49.696;6.630;2022-07-21T11:14:02;23.50;99.90
4820;DHT22;2424;49.696;6.630;2022-07-21T11:19:32;23.10;99.90
4820;DHT22;2424;49.696;6.630;2022-07-21T11:24:58;23.10;99.90
4820;DHT22;2424;49.696;6.630;2022-07-21T11:30:20;23.40;99.90
4820;DHT22;2424;49.696;6.630;2022-07-21T11:35:43;23.20;99.90
4820;DHT22;2424;49.696;6.630;2022-07-21T11:41:18;23.30;99.90
4820;DHT22;2424;49.696;6.630;2022-07-21T11:46:48;23.90;99.90
4820;DHT22;2424;49.696;6.630;2022-07-21T11:52:13;24.20;99.90
4820;DHT22;2424;49.696;6.630;2022-07-21T11:57:43;23.80;99.90
4820;DHT22;2424;49.696;6.630;2022-07-21T12:03:06;23.50;99.90
4820;DHT22;2424;49.696;6.630;2022-07-21T12:08:29;23.60;99.90
4820;DHT22;2424;49.696;6.630;2022-07-21T12:19:50;23.70;99.90
4820;DHT22;2424;49.696;6.630;2022-07-21T12:25:13;24.20;99.90
4820;DHT22;2424;49.696;6.630;2022-07-21T12:30:38;25.10;99.90
4820;DHT22;2424;49.696;6.630;2022-07-21T12:36:02;25.30;99.90
4820;DHT22;2424;49.696;6.630;2022-07-21T12:41:25;25.20;99.90
4820;DHT22;2424;49.696;6.630;2022-07-21T12:46:48;25.10;99.90
4820;DHT22;2424;49.696;6.630;2022-07-21T12:52:11;25.20;99.90
4820;DHT22;2424;49.696;6.630;2022-07-21T12:57:34;25.50;99.90
4820;DHT22;2424;49.696;6.630;2022-07-21T13:02:58;25.70;99.90
4820;DHT22;2424;49.696;6.630;2022-07-21T13:08:20;25.90;99.90
4820;DHT22;2424;49.696;6.630;2022-07-21T13:13:42;26.20;99.90
4820;DHT22;2424;49.696;6.630;2022-07-21T13:19:07;26.70;99.90
4820;DHT22;2424;49.696;6.630;2022-07-21T13:24:29;26.50;99.90
4820;DHT22;2424;49.696;6.630;2022-07-21T13:29:51;26.70;99.90
4820;DHT22;2424;49.696;6.630;2022-07-21T13:35:15;26.70;99.90
4820;DHT22;2424;49.696;6.630;2022-07-21T13:40:37;26.60;99.90
4820;DHT22;2424;49.696;6.630;2022-07-21T13:45:59;26.40;99.90
4820;DHT22;2424;49.696;6.630;2022-07-21T13:51:22;26.20;99.90
4820;DHT22;2424;49.696;6.630;2022-07-21T13:56:44;26.10;99.90
4820;DHT22;2424;49.696;6.630;2022-07-21T14:02:06;26.10;99.90
4820;DHT22;2424;49.696;6.630;2022-07-21T14:07:30;26.20;99.90
4820;DHT22;2424;49.696;6.630;2022-07-21T14:12:52;26.10;99.90
4820;DHT22;2424;49.696;6.630;2022-07-21T14:18:14;26.00;99.90
4820;DHT22;2424;49.696;6.630;2022-07-21T14:23:37;26.10;99.90
4820;DHT22;2424;49.696;6.630;2022-07-21T14:28:59;27.00;99.90
4820;DHT22;2424;49.696;6.630;2022-07-21T14:34:21;26.90;99.90
4820;DHT22;2424;49.696;6.630;2022-07-21T14:39:45;26.60;99.90
4820;DHT22;2424;49.696;6.630;2022-07-21T14:45:08;26.40;99.90
4820;DHT22;2424;49.696;6.630;2022-07-21T14:50:30;26.70;99.90
4820;DHT22;2424;49.696;6.630;2022-07-21T14:55:53;26.90;99.90
4820;DHT22;2424;49.696;6.630;2022-07-21T15:01:15;26.20;99.90
4820;DHT22;2424;49.696;6.630;2022-07-21T15:06:39;26.10;99.90
4820;DHT22;2424;49.696;6.630;2022-07-21T15:12:03;25.90;99.90
4820;DHT22;2424;49.696;6.630;2022-07-21T15:17:26;25.80;99.90
4820;DHT22;2424;49.696;6.630;2022-07-21T15:22:50;25.90;99.90
4820;DHT22;2424;49.696;6.630;2022-07-21T15:28:13;26.30;99.90
4820;DHT22;2424;49.696;6.630;2022-07-21T15:33:35;26.00;99.90
4820;DHT22;2424;49.696;6.630;2022-07-21T15:38:57;25.80;99.90
4820;DHT22;2424;49.696;6.630;2022-07-21T15:44:21;25.60;99.90
4820;DHT22;2424;49.696;6.630;2022-07-21T15:49:43;25.40;99.90
4820;DHT22;2424;49.696;6.630;2022-07-21T15:55:06;25.30;99.90
4820;DHT22;2424;49.696;6.630;2022-07-21T16:00:30;25.30;99.90
4820;DHT22;2424;49.696;6.630;2022-07-21T16:05:53;25.20;99.90
4820;DHT22;2424;49.696;6.630;2022-07-21T16:11:15;25.10;99.90
4820;DHT22;2424;49.696;6.630;2022-07-21T16:16:38;25.20;99.90
4820;DHT22;2424;49.696;6.630;2022-07-21T16:22:00;25.30;99.90
4820;DHT22;2424;49.696;6.630;2022-07-21T16:27:22;25.30;99.90
4820;DHT22;2424;49.696;6.630;2022-07-21T16:32:46;25.20;99.90
4820;DHT22;2424;49.696;6.630;2022-07-21T16:38:09;25.10;99.90
4820;DHT22;2424;49.696;6.630;2022-07-21T16:43:31;25.10;99.90
4820;DHT22;2424;49.696;6.630;2022-07-21T16:48:54;25.20;99.90
4820;DHT22;2424;49.696;6.630;2022-07-21T16:54:16;25.30;99.90
4820;DHT22;2424;49.696;6.630;2022-07-21T16:59:38;25.30;99.90
4820;DHT22;2424;49.696;6.630;2022-07-21T17:05:02;25.30;99.90
4820;DHT22;2424;49.696;6.630;2022-07-21T17:10:24;25.50;99.90
4820;DHT22;2424;49.696;6.630;2022-07-21T17:15:46;25.50;99.90
4820;DHT22;2424;49.696;6.630;2022-07-21T17:21:10;25.50;99.90
4820;DHT22;2424;49.696;6.630;2022-07-21T17:26:32;25.20;99.90
4820;DHT22;2424;49.696;6.630;2022-07-21T17:31:54;25.20;99.90
4820;DHT22;2424;49.696;6.630;2022-07-21T17:37:17;25.70;99.90
4820;DHT22;2424;49.696;6.630;2022-07-21T17:42:39;25.70;99.90
4820;DHT22;2424;49.696;6.630;2022-07-21T17:48:01;25.90;99.90
4820;DHT22;2424;49.696;6.630;2022-07-21T17:53:25;25.90;99.90
4820;DHT22;2424;49.696;6.630;2022-07-21T17:58:47;25.90;99.90
4820;DHT22;2424;49.696;6.630;2022-07-21T18:04:09;25.80;99.90
4820;DHT22;2424;49.696;6.630;2022-07-21T18:09:32;25.50;99.90
4820;DHT22;2424;49.696;6.630;2022-07-21T18:14:55;25.50;99.90
4820;DHT22;2424;49.696;6.630;2022-07-21T18:20:17;25.30;99.90
4820;DHT22;2424;49.696;6.630;2022-07-21T18:25:41;25.30;99.90
4820;DHT22;2424;49.696;6.630;2022-07-21T18:31:03;25.30;99.90
4820;DHT22;2424;49.696;6.630;2022-07-21T18:36:28;25.10;99.90
4820;DHT22;2424;49.696;6.630;2022-07-21T18:41:52;25.10;99.90
4820;DHT22;2424;49.696;6.630;2022-07-21T18:47:14;24.90;99.90
4820;DHT22;2424;49.696;6.630;2022-07-21T18:52:36;24.90;99.90
4820;DHT22;2424;49.696;6.630;2022-07-21T18:57:59;24.70;99.90
4820;DHT22;2424;49.696;6.630;2022-07-21T19:03:21;24.60;99.90
4820;DHT22;2424;49.696;6.630;2022-07-21T19:08:43;24.40;99.90
4820;DHT22;2424;49.696;6.630;2022-07-21T19:14:07;24.30;99.90
4820;DHT22;2424;49.696;6.630;2022-07-21T19:19:29;24.20;99.90
4820;DHT22;2424;49.696;6.630;2022-07-21T19:24:51;24.10;99.90
4820;DHT22;2424;49.696;6.630;2022-07-21T19:30:15;23.90;99.90
4820;DHT22;2424;49.696;6.630;2022-07-21T19:35:38;23.70;99.90
4820;DHT22;2424;49.696;6.630;2022-07-21T19:41:00;23.40;99.90
4820;DHT22;2424;49.696;6.630;2022-07-21T19:46:23;23.30;99.90
4820;DHT22;2424;49.696;6.630;2022-07-21T19:51:45;23.10;99.90
4820;DHT22;2424;49.696;6.630;2022-07-21T19:57:08;22.90;99.90
4820;DHT22;2424;49.696;6.630;2022-07-21T20:02:31;22.90;99.90
4820;DHT22;2424;49.696;6.630;2022-07-21T20:07:53;22.90;99.90
4820;DHT22;2424;49.696;6.630;2022-07-21T20:13:16;22.60;99.90
4820;DHT22;2424;49.696;6.630;2022-07-21T20:18:39;22.60;99.90
4820;DHT22;2424;49.696;6.630;2022-07-21T20:24:01;22.60;99.90
4820;DHT22;2424;49.696;6.630;2022-07-21T20:29:23;22.60;99.90
4820;DHT22;2424;49.696;6.630;2022-07-21T20:34:46;22.60;99.90
4820;DHT22;2424;49.696;6.630;2022-07-21T20:40:09;22.50;99.90
4820;DHT22;2424;49.696;6.630;2022-07-21T20:45:32;22.40;99.90
4820;DHT22;2424;49.696;6.630;2022-07-21T20:50:55;22.20;99.90
4820;DHT22;2424;49.696;6.630;2022-07-21T20:56:17;22.10;99.90
4820;DHT22;2424;49.696;6.630;2022-07-21T21:01:39;22.00;99.90
4820;DHT22;2424;49.696;6.630;2022-07-21T21:07:03;21.80;99.90
4820;DHT22;2424;49.696;6.630;2022-07-21T21:12:25;21.80;99.90
4820;DHT22;2424;49.696;6.630;2022-07-21T21:17:47;21.70;99.90
4820;DHT22;2424;49.696;6.630;2022-07-21T21:23:10;21.70;99.90
4820;DHT22;2424;49.696;6.630;2022-07-21T21:28:35;21.60;99.90
4820;DHT22;2424;49.696;6.630;2022-07-21T21:33:57;21.50;99.90
4820;DHT22;2424;49.696;6.630;2022-07-21T21:39:21;21.40;99.90
4820;DHT22;2424;49.696;6.630;2022-07-21T21:44:43;21.30;99.90
4820;DHT22;2424;49.696;6.630;2022-07-21T21:50:05;21.30;99.90
4820;DHT22;2424;49.696;6.630;2022-07-21T21:55:29;21.10;99.90
4820;DHT22;2424;49.696;6.630;2022-07-21T22:00:51;20.90;99.90
4820;DHT22;2424;49.696;6.630;2022-07-21T22:06:13;20.80;99.90
4820;DHT22;2424;49.696;6.630;2022-07-21T22:11:37;20.70;99.90
4820;DHT22;2424;49.696;6.630;2022-07-21T22:16:59;20.60;99.90
4820;DHT22;2424;49.696;6.630;2022-07-21T22:22:21;20.50;99.90
4820;DHT22;2424;49.696;6.630;2022-07-21T22:27:44;20.30;99.90
4820;DHT22;2424;49.696;6.630;2022-07-21T22:33:06;20.20;99.90
4820;DHT22;2424;49.696;6.630;2022-07-21T22:38:28;20.10;99.90
4820;DHT22;2424;49.696;6.630;2022-07-21T22:43:52;20.00;99.90
4820;DHT22;2424;49.696;6.630;2022-07-21T22:49:14;20.00;99.90
4820;DHT22;2424;49.696;6.630;2022-07-21T22:54:36;19.90;99.90
4820;DHT22;2424;49.696;6.630;2022-07-21T22:59:59;19.80;99.90
4820;DHT22;2424;49.696;6.630;2022-07-21T23:05:21;19.80;99.90
4820;DHT22;2424;49.696;6.630;2022-07-21T23:10:45;19.70;99.90
4820;DHT22;2424;49.696;6.630;2022-07-21T23:16:09;19.60;99.90
4820;DHT22;2424;49.696;6.630;2022-07-21T23:21:31;19.60;99.90
4820;DHT22;2424;49.696;6.630;2022-07-21T23:26:53;19.50;99.90
4820;DHT22;2424;49.696;6.630;2022-07-21T23:32:16;19.40;99.90
4820;DHT22;2424;49.696;6.630;2022-07-21T23:37:38;19.40;99.90
4820;DHT22;2424;49.696;6.630;2022-07-21T23:43:00;19.30;99.90
4820;DHT22;2424;49.696;6.630;2022-07-21T23:48:24;19.30;99.90
4820;DHT22;2424;49.696;6.630;2022-07-21T23:53:46;19.20;99.90
4820;DHT22;2424;49.696;6.630;2022-07-21T23:59:08;19.10;99.90
